sensor_id;sensor_type;location;lat;lon;timestamp;temperature;humidity
27797;DHT22;15177;50.844;4.412;2022-11-11T00:01:36;11.40;99.90
27797;DHT22;15177;50.844;4.412;2022-11-11T00:04:01;11.30;99.90
27797;DHT22;15177;50.844;4.412;2022-11-11T00:06:27;11.40;99.90
27797;DHT22;15177;50.844;4.412;2022-11-11T00:08:53;11.40;99.90
27797;DHT22;15177;50.844;4.412;2022-11-11T00:11:19;11.40;99.90
27797;DHT22;15177;50.844;4.412;2022-11-11T00:13:44;11.40;99.90
27797;DHT22;15177;50.844;4.412;2022-11-11T00:16:18;11.40;99.90
27797;DHT22;15177;50.844;4.412;2022-11-11T00:18:45;11.50;99.90
27797;DHT22;15177;50.844;4.412;2022-11-11T00:21:30;11.40;99.90
27797;DHT22;15177;50.844;4.412;2022-11-11T00:24:28;11.40;99.90
27797;DHT22;15177;50.844;4.412;2022-11-11T00:27:14;11.40;99.90
27797;DHT22;15177;50.844;4.412;2022-11-11T00:29:40;11.30;99.90
27797;DHT22;15177;50.844;4.412;2022-11-11T00:32:10;11.30;99.90
27797;DHT22;15177;50.844;4.412;2022-11-11T00:34:48;11.20;99.90
27797;DHT22;15177;50.844;4.412;2022-11-11T00:37:33;11.20;99.90
27797;DHT22;15177;50.844;4.412;2022-11-11T00:39:59;11.20;99.90
27797;DHT22;15177;50.844;4.412;2022-11-11T00:42:25;11.20;99.90
27797;DHT22;15177;50.844;4.412;2022-11-11T00:44:51;11.20;99.90
27797;DHT22;15177;50.844;4.412;2022-11-11T00:47:17;11.20;99.90
27797;DHT22;15177;50.844;4.412;2022-11-11T00:50:03;11.30;99.90
27797;DHT22;15177;50.844;4.412;2022-11-11T00:52:48;11.30;99.90
27797;DHT22;15177;50.844;4.412;2022-11-11T00:55:13;11.40;99.90
27797;DHT22;15177;50.844;4.412;2022-11-11T00:57:39;11.30;99.90
27797;DHT22;15177;50.844;4.412;2022-11-11T01:00:06;11.30;99.90
27797;DHT22;15177;50.844;4.412;2022-11-11T01:02:31;11.40;99.90
27797;DHT22;15177;50.844;4.412;2022-11-11T01:04:57;11.40;99.90
27797;DHT22;15177;50.844;4.412;2022-11-11T01:07:23;11.40;99.90
27797;DHT22;15177;50.844;4.412;2022-11-11T01:09:49;11.40;99.90
27797;DHT22;15177;50.844;4.412;2022-11-11T01:12:15;11.30;99.90
27797;DHT22;15177;50.844;4.412;2022-11-11T01:14:40;11.30;99.90
27797;DHT22;15177;50.844;4.412;2022-11-11T01:17:06;11.30;99.90
27797;DHT22;15177;50.844;4.412;2022-11-11T01:19:34;11.20;99.90
27797;DHT22;15177;50.844;4.412;2022-11-11T01:21:59;11.20;99.90
27797;DHT22;15177;50.844;4.412;2022-11-11T01:24:25;11.10;99.90
27797;DHT22;15177;50.844;4.412;2022-11-11T01:26:51;11.20;99.90
27797;DHT22;15177;50.844;4.412;2022-11-11T01:29:16;11.20;99.90
27797;DHT22;15177;50.844;4.412;2022-11-11T01:31:43;11.20;99.90
27797;DHT22;15177;50.844;4.412;2022-11-11T01:34:08;11.30;99.90
27797;DHT22;15177;50.844;4.412;2022-11-11T01:36:34;11.30;99.90
27797;DHT22;15177;50.844;4.412;2022-11-11T01:39:01;11.30;99.90
27797;DHT22;15177;50.844;4.412;2022-11-11T01:41:30;11.20;99.90
27797;DHT22;15177;50.844;4.412;2022-11-11T01:46:52;11.40;99.90
27797;DHT22;15177;50.844;4.412;2022-11-11T01:54:20;11.30;99.90
27797;DHT22;15177;50.844;4.412;2022-11-11T01:56:50;11.20;99.90
27797;DHT22;15177;50.844;4.412;2022-11-11T01:59:16;11.20;99.90
27797;DHT22;15177;50.844;4.412;2022-11-11T02:01:44;11.10;99.90
27797;DHT22;15177;50.844;4.412;2022-11-11T02:04:10;11.10;99.90
27797;DHT22;15177;50.844;4.412;2022-11-11T02:07:12;11.20;99.90
27797;DHT22;15177;50.844;4.412;2022-11-11T02:09:47;11.10;99.90
27797;DHT22;15177;50.844;4.412;2022-11-11T02:12:13;11.00;99.90
27797;DHT22;15177;50.844;4.412;2022-11-11T02:14:58;11.10;99.90
27797;DHT22;15177;50.844;4.412;2022-11-11T02:17:26;11.10;99.90
27797;DHT22;15177;50.844;4.412;2022-11-11T02:19:53;11.20;99.90
27797;DHT22;15177;50.844;4.412;2022-11-11T02:22:50;11.10;99.90
27797;DHT22;15177;50.844;4.412;2022-11-11T02:25:21;11.20;99.90
27797;DHT22;15177;50.844;4.412;2022-11-11T02:27:50;11.30;99.90
27797;DHT22;15177;50.844;4.412;2022-11-11T02:30:18;11.30;99.90
27797;DHT22;15177;50.844;4.412;2022-11-11T02:32:46;11.30;99.90
27797;DHT22;15177;50.844;4.412;2022-11-11T02:35:39;11.40;99.90
27797;DHT22;15177;50.844;4.412;2022-11-11T02:38:04;11.30;99.90
27797;DHT22;15177;50.844;4.412;2022-11-11T02:40:42;11.30;99.90
27797;DHT22;15177;50.844;4.412;2022-11-11T02:43:29;11.30;99.90
27797;DHT22;15177;50.844;4.412;2022-11-11T02:45:55;11.30;99.90
27797;DHT22;15177;50.844;4.412;2022-11-11T02:48:21;11.20;99.90
27797;DHT22;15177;50.844;4.412;2022-11-11T02:50:47;11.20;99.90
27797;DHT22;15177;50.844;4.412;2022-11-11T02:53:13;11.20;99.90
27797;DHT22;15177;50.844;4.412;2022-11-11T02:55:39;11.30;99.90
27797;DHT22;15177;50.844;4.412;2022-11-11T02:58:04;11.50;99.90
27797;DHT22;15177;50.844;4.412;2022-11-11T03:00:31;11.40;99.90
27797;DHT22;15177;50.844;4.412;2022-11-11T03:02:56;11.40;99.90
27797;DHT22;15177;50.844;4.412;2022-11-11T03:05:22;11.30;99.90
27797;DHT22;15177;50.844;4.412;2022-11-11T03:07:48;11.30;99.90
27797;DHT22;15177;50.844;4.412;2022-11-11T03:10:14;11.20;99.90
27797;DHT22;15177;50.844;4.412;2022-11-11T03:12:40;11.30;99.90
27797;DHT22;15177;50.844;4.412;2022-11-11T03:15:06;11.40;99.90
27797;DHT22;15177;50.844;4.412;2022-11-11T03:17:32;11.50;99.90
27797;DHT22;15177;50.844;4.412;2022-11-11T03:20:07;11.30;99.90
27797;DHT22;15177;50.844;4.412;2022-11-11T03:23:04;11.30;99.90
27797;DHT22;15177;50.844;4.412;2022-11-11T03:25:30;11.40;99.90
27797;DHT22;15177;50.844;4.412;2022-11-11T03:28:08;11.50;99.90
27797;DHT22;15177;50.844;4.412;2022-11-11T03:30:36;11.50;99.90
27797;DHT22;15177;50.844;4.412;2022-11-11T03:33:02;11.40;99.90
27797;DHT22;15177;50.844;4.412;2022-11-11T03:35:28;11.40;99.90
27797;DHT22;15177;50.844;4.412;2022-11-11T03:37:54;11.60;99.90
27797;DHT22;15177;50.844;4.412;2022-11-11T03:40:38;11.50;99.90
27797;DHT22;15177;50.844;4.412;2022-11-11T03:43:04;11.50;99.90
27797;DHT22;15177;50.844;4.412;2022-11-11T03:45:30;11.50;99.90
27797;DHT22;15177;50.844;4.412;2022-11-11T03:47:55;11.50;99.90
27797;DHT22;15177;50.844;4.412;2022-11-11T03:50:21;11.50;99.90
27797;DHT22;15177;50.844;4.412;2022-11-11T03:52:48;11.30;99.90
27797;DHT22;15177;50.844;4.412;2022-11-11T03:55:14;11.30;99.90
27797;DHT22;15177;50.844;4.412;2022-11-11T03:57:41;11.40;99.90
27797;DHT22;15177;50.844;4.412;2022-11-11T04:00:08;11.40;99.90
27797;DHT22;15177;50.844;4.412;2022-11-11T04:02:36;11.30;99.90
27797;DHT22;15177;50.844;4.412;2022-11-11T04:05:21;11.30;99.90
27797;DHT22;15177;50.844;4.412;2022-11-11T04:08:10;11.40;99.90
27797;DHT22;15177;50.844;4.412;2022-11-11T04:10:55;11.40;99.90
27797;DHT22;15177;50.844;4.412;2022-11-11T04:13:22;11.40;99.90
27797;DHT22;15177;50.844;4.412;2022-11-11T04:16:07;11.30;99.90
27797;DHT22;15177;50.844;4.412;2022-11-11T04:18:34;11.20;99.90
27797;DHT22;15177;50.844;4.412;2022-11-11T04:21:18;11.10;99.90
27797;DHT22;15177;50.844;4.412;2022-11-11T04:24:03;10.90;99.90
27797;DHT22;15177;50.844;4.412;2022-11-11T04:26:49;10.90;99.90
27797;DHT22;15177;50.844;4.412;2022-11-11T04:29:15;11.00;99.90
27797;DHT22;15177;50.844;4.412;2022-11-11T04:32:02;11.00;99.90
27797;DHT22;15177;50.844;4.412;2022-11-11T04:34:52;11.00;99.90
27797;DHT22;15177;50.844;4.412;2022-11-11T04:37:19;11.00;99.90
27797;DHT22;15177;50.844;4.412;2022-11-11T04:39:45;11.00;99.90
27797;DHT22;15177;50.844;4.412;2022-11-11T04:42:31;10.80;99.90
27797;DHT22;15177;50.844;4.412;2022-11-11T04:44:59;10.80;99.90
27797;DHT22;15177;50.844;4.412;2022-11-11T04:47:59;10.80;99.90
27797;DHT22;15177;50.844;4.412;2022-11-11T04:50:36;10.80;99.90
27797;DHT22;15177;50.844;4.412;2022-11-11T04:53:04;10.70;99.90
27797;DHT22;15177;50.844;4.412;2022-11-11T04:55:31;10.70;99.90
27797;DHT22;15177;50.844;4.412;2022-11-11T04:58:17;10.70;99.90
27797;DHT22;15177;50.844;4.412;2022-11-11T05:00:43;10.50;99.90
27797;DHT22;15177;50.844;4.412;2022-11-11T05:03:10;10.60;99.90
27797;DHT22;15177;50.844;4.412;2022-11-11T05:05:59;10.50;99.90
27797;DHT22;15177;50.844;4.412;2022-11-11T05:08:45;10.40;99.90
27797;DHT22;15177;50.844;4.412;2022-11-11T05:11:30;10.40;99.90
27797;DHT22;15177;50.844;4.412;2022-11-11T05:13:59;10.50;99.90
27797;DHT22;15177;50.844;4.412;2022-11-11T05:16:55;10.30;99.90
27797;DHT22;15177;50.844;4.412;2022-11-11T05:19:40;10.30;99.90
27797;DHT22;15177;50.844;4.412;2022-11-11T05:22:34;10.20;99.90
27797;DHT22;15177;50.844;4.412;2022-11-11T05:25:00;10.20;99.90
27797;DHT22;15177;50.844;4.412;2022-11-11T05:27:44;10.30;99.90
27797;DHT22;15177;50.844;4.412;2022-11-11T05:30:12;10.40;99.90
27797;DHT22;15177;50.844;4.412;2022-11-11T05:32:38;10.30;99.90
27797;DHT22;15177;50.844;4.412;2022-11-11T05:35:05;10.30;99.90
27797;DHT22;15177;50.844;4.412;2022-11-11T05:37:31;10.20;99.90
27797;DHT22;15177;50.844;4.412;2022-11-11T05:39:57;10.10;99.90
27797;DHT22;15177;50.844;4.412;2022-11-11T05:42:22;10.20;99.90
27797;DHT22;15177;50.844;4.412;2022-11-11T05:44:48;10.20;99.90
27797;DHT22;15177;50.844;4.412;2022-11-11T05:47:14;10.10;99.90
27797;DHT22;15177;50.844;4.412;2022-11-11T05:49:40;10.10;99.90
27797;DHT22;15177;50.844;4.412;2022-11-11T05:52:07;10.10;99.90
27797;DHT22;15177;50.844;4.412;2022-11-11T05:54:33;10.10;99.90
27797;DHT22;15177;50.844;4.412;2022-11-11T05:56:59;10.20;99.90
27797;DHT22;15177;50.844;4.412;2022-11-11T05:59:25;10.20;99.90
27797;DHT22;15177;50.844;4.412;2022-11-11T06:01:51;10.20;99.90
27797;DHT22;15177;50.844;4.412;2022-11-11T06:04:17;10.20;99.90
27797;DHT22;15177;50.844;4.412;2022-11-11T06:06:42;10.20;99.90
27797;DHT22;15177;50.844;4.412;2022-11-11T06:09:08;10.10;99.90
27797;DHT22;15177;50.844;4.412;2022-11-11T06:11:33;10.10;99.90
27797;DHT22;15177;50.844;4.412;2022-11-11T06:13:59;10.00;99.90
27797;DHT22;15177;50.844;4.412;2022-11-11T06:16:25;10.00;99.90
27797;DHT22;15177;50.844;4.412;2022-11-11T06:18:51;10.10;99.90
27797;DHT22;15177;50.844;4.412;2022-11-11T06:21:17;10.00;99.90
27797;DHT22;15177;50.844;4.412;2022-11-11T06:23:43;10.00;99.90
27797;DHT22;15177;50.844;4.412;2022-11-11T06:26:10;10.00;99.90
27797;DHT22;15177;50.844;4.412;2022-11-11T06:31:09;9.80;99.90
27797;DHT22;15177;50.844;4.412;2022-11-11T06:33:36;9.80;99.90
27797;DHT22;15177;50.844;4.412;2022-11-11T06:36:03;9.80;99.90
27797;DHT22;15177;50.844;4.412;2022-11-11T06:38:29;9.80;99.90
27797;DHT22;15177;50.844;4.412;2022-11-11T06:40:55;9.80;99.90
27797;DHT22;15177;50.844;4.412;2022-11-11T06:43:20;9.80;99.90
27797;DHT22;15177;50.844;4.412;2022-11-11T06:45:52;9.80;99.90
27797;DHT22;15177;50.844;4.412;2022-11-11T06:48:19;9.80;99.90
27797;DHT22;15177;50.844;4.412;2022-11-11T06:50:45;9.70;99.90
27797;DHT22;15177;50.844;4.412;2022-11-11T06:53:15;9.70;99.90
27797;DHT22;15177;50.844;4.412;2022-11-11T06:55:42;9.70;99.90
27797;DHT22;15177;50.844;4.412;2022-11-11T06:58:11;9.70;99.90
27797;DHT22;15177;50.844;4.412;2022-11-11T07:00:37;9.80;99.90
27797;DHT22;15177;50.844;4.412;2022-11-11T07:03:04;9.80;99.90
27797;DHT22;15177;50.844;4.412;2022-11-11T07:05:31;9.80;99.90
27797;DHT22;15177;50.844;4.412;2022-11-11T07:08:04;9.80;99.90
27797;DHT22;15177;50.844;4.412;2022-11-11T07:10:31;9.80;99.90
27797;DHT22;15177;50.844;4.412;2022-11-11T07:12:57;9.90;99.90
27797;DHT22;15177;50.844;4.412;2022-11-11T07:15:23;9.90;99.90
27797;DHT22;15177;50.844;4.412;2022-11-11T07:17:49;9.90;99.90
27797;DHT22;15177;50.844;4.412;2022-11-11T07:20:14;9.90;99.90
27797;DHT22;15177;50.844;4.412;2022-11-11T07:22:40;9.90;99.90
27797;DHT22;15177;50.844;4.412;2022-11-11T07:25:06;10.00;99.90
27797;DHT22;15177;50.844;4.412;2022-11-11T07:27:35;10.00;99.90
27797;DHT22;15177;50.844;4.412;2022-11-11T07:30:01;10.10;99.90
27797;DHT22;15177;50.844;4.412;2022-11-11T07:32:27;10.20;99.90
27797;DHT22;15177;50.844;4.412;2022-11-11T07:34:52;10.20;99.90
27797;DHT22;15177;50.844;4.412;2022-11-11T07:37:18;10.30;99.90
27797;DHT22;15177;50.844;4.412;2022-11-11T07:39:44;10.20;99.90
27797;DHT22;15177;50.844;4.412;2022-11-11T07:42:09;10.20;99.90
27797;DHT22;15177;50.844;4.412;2022-11-11T07:44:35;10.20;99.90
27797;DHT22;15177;50.844;4.412;2022-11-11T07:47:01;10.20;99.90
27797;DHT22;15177;50.844;4.412;2022-11-11T07:49:26;10.30;99.90
27797;DHT22;15177;50.844;4.412;2022-11-11T07:51:52;10.40;99.90
27797;DHT22;15177;50.844;4.412;2022-11-11T07:54:17;10.50;99.90
27797;DHT22;15177;50.844;4.412;2022-11-11T07:56:43;10.50;99.90
27797;DHT22;15177;50.844;4.412;2022-11-11T07:59:09;10.40;99.90
27797;DHT22;15177;50.844;4.412;2022-11-11T08:01:34;10.50;99.90
27797;DHT22;15177;50.844;4.412;2022-11-11T08:04:00;10.60;99.90
27797;DHT22;15177;50.844;4.412;2022-11-11T08:06:26;10.70;99.90
27797;DHT22;15177;50.844;4.412;2022-11-11T08:08:51;10.80;99.90
27797;DHT22;15177;50.844;4.412;2022-11-11T08:11:17;10.80;99.90
27797;DHT22;15177;50.844;4.412;2022-11-11T08:14:02;10.80;99.90
27797;DHT22;15177;50.844;4.412;2022-11-11T08:16:28;11.00;99.90
27797;DHT22;15177;50.844;4.412;2022-11-11T08:18:54;11.10;99.90
27797;DHT22;15177;50.844;4.412;2022-11-11T08:21:19;11.20;99.90
27797;DHT22;15177;50.844;4.412;2022-11-11T08:23:45;11.30;99.90
27797;DHT22;15177;50.844;4.412;2022-11-11T08:26:10;11.40;99.90
27797;DHT22;15177;50.844;4.412;2022-11-11T08:28:36;11.60;99.90
27797;DHT22;15177;50.844;4.412;2022-11-11T08:31:02;11.50;99.90
27797;DHT22;15177;50.844;4.412;2022-11-11T08:33:28;11.60;99.90
27797;DHT22;15177;50.844;4.412;2022-11-11T08:35:54;11.80;99.90
27797;DHT22;15177;50.844;4.412;2022-11-11T08:38:23;11.90;99.90
27797;DHT22;15177;50.844;4.412;2022-11-11T08:40:50;12.10;99.90
27797;DHT22;15177;50.844;4.412;2022-11-11T08:43:16;12.10;99.90
27797;DHT22;15177;50.844;4.412;2022-11-11T08:45:42;12.10;99.90
27797;DHT22;15177;50.844;4.412;2022-11-11T08:48:08;12.10;99.90
27797;DHT22;15177;50.844;4.412;2022-11-11T08:50:38;12.20;99.90
27797;DHT22;15177;50.844;4.412;2022-11-11T08:53:06;12.20;99.90
27797;DHT22;15177;50.844;4.412;2022-11-11T08:55:33;12.30;99.90
27797;DHT22;15177;50.844;4.412;2022-11-11T08:58:01;12.30;99.90
27797;DHT22;15177;50.844;4.412;2022-11-11T09:00:28;12.40;99.90
27797;DHT22;15177;50.844;4.412;2022-11-11T09:02:54;12.40;99.90
27797;DHT22;15177;50.844;4.412;2022-11-11T09:05:24;12.50;99.90
27797;DHT22;15177;50.844;4.412;2022-11-11T09:07:49;12.40;99.90
27797;DHT22;15177;50.844;4.412;2022-11-11T09:10:15;12.50;99.90
27797;DHT22;15177;50.844;4.412;2022-11-11T09:12:41;12.50;99.90
27797;DHT22;15177;50.844;4.412;2022-11-11T09:15:07;12.60;99.90
27797;DHT22;15177;50.844;4.412;2022-11-11T09:17:32;12.60;99.90
27797;DHT22;15177;50.844;4.412;2022-11-11T09:19:58;12.60;99.90
27797;DHT22;15177;50.844;4.412;2022-11-11T09:22:24;12.70;99.90
27797;DHT22;15177;50.844;4.412;2022-11-11T09:24:49;13.00;99.90
27797;DHT22;15177;50.844;4.412;2022-11-11T09:27:16;13.30;99.90
27797;DHT22;15177;50.844;4.412;2022-11-11T09:29:41;13.90;99.90
27797;DHT22;15177;50.844;4.412;2022-11-11T09:32:07;14.70;99.90
27797;DHT22;15177;50.844;4.412;2022-11-11T09:34:33;15.50;99.90
27797;DHT22;15177;50.844;4.412;2022-11-11T09:36:58;16.10;99.90
27797;DHT22;15177;50.844;4.412;2022-11-11T09:39:24;16.70;99.90
27797;DHT22;15177;50.844;4.412;2022-11-11T09:50:21;19.10;99.90
27797;DHT22;15177;50.844;4.412;2022-11-11T09:56:08;19.60;99.90
27797;DHT22;15177;50.844;4.412;2022-11-11T09:58:43;20.00;99.90
27797;DHT22;15177;50.844;4.412;2022-11-11T10:01:13;20.30;99.90
27797;DHT22;15177;50.844;4.412;2022-11-11T10:03:48;20.40;99.90
27797;DHT22;15177;50.844;4.412;2022-11-11T10:06:22;20.10;99.90
27797;DHT22;15177;50.844;4.412;2022-11-11T10:08:59;19.80;99.90
27797;DHT22;15177;50.844;4.412;2022-11-11T10:14:11;19.70;99.90
27797;DHT22;15177;50.844;4.412;2022-11-11T10:17:00;19.40;99.90
27797;DHT22;15177;50.844;4.412;2022-11-11T10:19:51;19.50;99.90
27797;DHT22;15177;50.844;4.412;2022-11-11T10:22:26;19.30;99.90
27797;DHT22;15177;50.844;4.412;2022-11-11T10:25:15;18.50;99.90
27797;DHT22;15177;50.844;4.412;2022-11-11T10:27:44;18.00;99.90
27797;DHT22;15177;50.844;4.412;2022-11-11T10:30:29;17.50;99.90
27797;DHT22;15177;50.844;4.412;2022-11-11T10:33:17;17.10;99.90
27797;DHT22;15177;50.844;4.412;2022-11-11T10:35:44;16.70;99.90
27797;DHT22;15177;50.844;4.412;2022-11-11T10:38:31;16.50;99.90
27797;DHT22;15177;50.844;4.412;2022-11-11T10:41:04;16.40;99.90
27797;DHT22;15177;50.844;4.412;2022-11-11T10:43:34;16.20;99.90
27797;DHT22;15177;50.844;4.412;2022-11-11T10:46:07;15.90;99.90
27797;DHT22;15177;50.844;4.412;2022-11-11T10:51:15;15.50;99.90
27797;DHT22;15177;50.844;4.412;2022-11-11T10:59:11;15.20;99.90
27797;DHT22;15177;50.844;4.412;2022-11-11T11:01:51;15.20;99.90
27797;DHT22;15177;50.844;4.412;2022-11-11T11:07:11;15.20;99.90
27797;DHT22;15177;50.844;4.412;2022-11-11T11:09:46;15.40;99.90
27797;DHT22;15177;50.844;4.412;2022-11-11T11:12:31;15.40;99.90
27797;DHT22;15177;50.844;4.412;2022-11-11T11:15:07;15.50;99.90
27797;DHT22;15177;50.844;4.412;2022-11-11T11:20:37;15.50;99.90
27797;DHT22;15177;50.844;4.412;2022-11-11T11:23:02;15.50;99.90
27797;DHT22;15177;50.844;4.412;2022-11-11T11:25:30;15.40;99.90
27797;DHT22;15177;50.844;4.412;2022-11-11T11:28:07;15.30;99.90
27797;DHT22;15177;50.844;4.412;2022-11-11T11:30:33;15.20;99.90
27797;DHT22;15177;50.844;4.412;2022-11-11T11:33:04;15.40;99.90
27797;DHT22;15177;50.844;4.412;2022-11-11T11:37:55;15.40;99.90
27797;DHT22;15177;50.844;4.412;2022-11-11T11:40:21;15.40;99.90
27797;DHT22;15177;50.844;4.412;2022-11-11T11:42:46;15.50;99.90
27797;DHT22;15177;50.844;4.412;2022-11-11T11:50:54;15.40;99.90
27797;DHT22;15177;50.844;4.412;2022-11-11T11:58:39;15.40;99.90
27797;DHT22;15177;50.844;4.412;2022-11-11T12:01:12;15.40;99.90
27797;DHT22;15177;50.844;4.412;2022-11-11T12:09:49;15.80;99.90
27797;DHT22;15177;50.844;4.412;2022-11-11T12:12:36;15.70;99.90
27797;DHT22;15177;50.844;4.412;2022-11-11T12:15:27;15.70;99.90
27797;DHT22;15177;50.844;4.412;2022-11-11T12:20:50;15.70;99.90
27797;DHT22;15177;50.844;4.412;2022-11-11T12:23:50;15.70;99.90
27797;DHT22;15177;50.844;4.412;2022-11-11T12:26:53;15.70;99.90
27797;DHT22;15177;50.844;4.412;2022-11-11T12:32:22;15.90;99.90
27797;DHT22;15177;50.844;4.412;2022-11-11T12:37:47;16.00;99.90
27797;DHT22;15177;50.844;4.412;2022-11-11T12:45:47;16.00;99.90
27797;DHT22;15177;50.844;4.412;2022-11-11T12:48:53;16.00;99.90
27797;DHT22;15177;50.844;4.412;2022-11-11T13:00:25;15.90;99.90
27797;DHT22;15177;50.844;4.412;2022-11-11T13:05:26;16.10;99.90
27797;DHT22;15177;50.844;4.412;2022-11-11T13:16:29;16.00;99.90
27797;DHT22;15177;50.844;4.412;2022-11-11T13:19:02;16.00;99.90
27797;DHT22;15177;50.844;4.412;2022-11-11T13:21:47;15.80;99.90
27797;DHT22;15177;50.844;4.412;2022-11-11T13:24:17;15.90;99.90
27797;DHT22;15177;50.844;4.412;2022-11-11T13:26:47;15.80;99.90
27797;DHT22;15177;50.844;4.412;2022-11-11T13:32:14;15.90;99.90
27797;DHT22;15177;50.844;4.412;2022-11-11T13:34:41;15.80;99.90
27797;DHT22;15177;50.844;4.412;2022-11-11T13:37:15;15.80;99.90
27797;DHT22;15177;50.844;4.412;2022-11-11T13:39:48;15.70;99.90
27797;DHT22;15177;50.844;4.412;2022-11-11T13:42:25;15.80;99.90
27797;DHT22;15177;50.844;4.412;2022-11-11T13:44:54;15.90;99.90
27797;DHT22;15177;50.844;4.412;2022-11-11T13:47:28;15.70;99.90
27797;DHT22;15177;50.844;4.412;2022-11-11T13:52:34;15.60;99.90
27797;DHT22;15177;50.844;4.412;2022-11-11T13:55:28;15.70;99.90
27797;DHT22;15177;50.844;4.412;2022-11-11T13:57:55;15.40;99.90
27797;DHT22;15177;50.844;4.412;2022-11-11T14:02:46;15.40;99.90
27797;DHT22;15177;50.844;4.412;2022-11-11T14:12:53;15.70;99.90
27797;DHT22;15177;50.844;4.412;2022-11-11T14:15:45;15.50;99.90
27797;DHT22;15177;50.844;4.412;2022-11-11T14:20:48;15.00;99.90
27797;DHT22;15177;50.844;4.412;2022-11-11T14:25:48;15.20;99.90
27797;DHT22;15177;50.844;4.412;2022-11-11T14:28:28;15.00;99.90
27797;DHT22;15177;50.844;4.412;2022-11-11T14:34:02;14.80;99.90
27797;DHT22;15177;50.844;4.412;2022-11-11T14:39:23;14.90;99.90
27797;DHT22;15177;50.844;4.412;2022-11-11T14:41:54;15.00;99.90
27797;DHT22;15177;50.844;4.412;2022-11-11T14:52:25;14.80;99.90
27797;DHT22;15177;50.844;4.412;2022-11-11T15:00:22;14.60;99.90
27797;DHT22;15177;50.844;4.412;2022-11-11T15:02:59;14.70;99.90
27797;DHT22;15177;50.844;4.412;2022-11-11T15:08:23;14.80;99.90
27797;DHT22;15177;50.844;4.412;2022-11-11T15:22:20;14.40;99.90
27797;DHT22;15177;50.844;4.412;2022-11-11T15:33:02;14.20;99.90
27797;DHT22;15177;50.844;4.412;2022-11-11T15:35:40;14.10;99.90
27797;DHT22;15177;50.844;4.412;2022-11-11T15:38:10;13.90;99.90
27797;DHT22;15177;50.844;4.412;2022-11-11T15:40:46;13.80;99.90
27797;DHT22;15177;50.844;4.412;2022-11-11T15:45:41;13.80;99.90
27797;DHT22;15177;50.844;4.412;2022-11-11T15:48:15;13.80;99.90
27797;DHT22;15177;50.844;4.412;2022-11-11T15:50:42;13.80;99.90
27797;DHT22;15177;50.844;4.412;2022-11-11T15:53:11;13.70;99.90
27797;DHT22;15177;50.844;4.412;2022-11-11T15:55:37;13.70;99.90
27797;DHT22;15177;50.844;4.412;2022-11-11T15:58:30;13.70;99.90
27797;DHT22;15177;50.844;4.412;2022-11-11T16:01:01;13.60;99.90
27797;DHT22;15177;50.844;4.412;2022-11-11T16:03:41;13.50;99.90
27797;DHT22;15177;50.844;4.412;2022-11-11T16:06:10;13.40;99.90
27797;DHT22;15177;50.844;4.412;2022-11-11T16:08:40;13.40;99.90
27797;DHT22;15177;50.844;4.412;2022-11-11T16:11:13;13.30;99.90
27797;DHT22;15177;50.844;4.412;2022-11-11T16:13:56;13.20;99.90
27797;DHT22;15177;50.844;4.412;2022-11-11T16:16:29;13.10;99.90
27797;DHT22;15177;50.844;4.412;2022-11-11T16:21:39;13.10;99.90
27797;DHT22;15177;50.844;4.412;2022-11-11T16:24:26;13.10;99.90
27797;DHT22;15177;50.844;4.412;2022-11-11T16:26:52;13.00;99.90
27797;DHT22;15177;50.844;4.412;2022-11-11T16:29:18;13.00;99.90
27797;DHT22;15177;50.844;4.412;2022-11-11T16:31:45;12.90;99.90
27797;DHT22;15177;50.844;4.412;2022-11-11T16:39:31;12.90;99.90
27797;DHT22;15177;50.844;4.412;2022-11-11T16:41:59;12.90;99.90
27797;DHT22;15177;50.844;4.412;2022-11-11T16:50:09;12.80;99.90
27797;DHT22;15177;50.844;4.412;2022-11-11T16:52:53;12.80;99.90
27797;DHT22;15177;50.844;4.412;2022-11-11T16:55:31;12.80;99.90
27797;DHT22;15177;50.844;4.412;2022-11-11T16:58:09;12.70;99.90
27797;DHT22;15177;50.844;4.412;2022-11-11T17:00:37;12.70;99.90
27797;DHT22;15177;50.844;4.412;2022-11-11T17:06:01;12.60;99.90
27797;DHT22;15177;50.844;4.412;2022-11-11T17:08:40;12.60;99.90
27797;DHT22;15177;50.844;4.412;2022-11-11T17:13:54;12.50;99.90
27797;DHT22;15177;50.844;4.412;2022-11-11T17:16:20;12.50;99.90
27797;DHT22;15177;50.844;4.412;2022-11-11T17:18:45;12.50;99.90
27797;DHT22;15177;50.844;4.412;2022-11-11T17:21:11;12.40;99.90
27797;DHT22;15177;50.844;4.412;2022-11-11T17:23:37;12.40;99.90
27797;DHT22;15177;50.844;4.412;2022-11-11T17:26:03;12.40;99.90
27797;DHT22;15177;50.844;4.412;2022-11-11T17:28:34;12.40;99.90
27797;DHT22;15177;50.844;4.412;2022-11-11T17:31:04;12.50;99.90
27797;DHT22;15177;50.844;4.412;2022-11-11T17:33:30;12.50;99.90
27797;DHT22;15177;50.844;4.412;2022-11-11T17:35:55;12.50;99.90
27797;DHT22;15177;50.844;4.412;2022-11-11T17:38:22;12.50;99.90
27797;DHT22;15177;50.844;4.412;2022-11-11T17:40:48;12.50;99.90
27797;DHT22;15177;50.844;4.412;2022-11-11T17:43:14;12.50;99.90
27797;DHT22;15177;50.844;4.412;2022-11-11T17:45:41;12.40;99.90
27797;DHT22;15177;50.844;4.412;2022-11-11T17:48:07;12.40;99.90
27797;DHT22;15177;50.844;4.412;2022-11-11T17:50:35;12.40;99.90
27797;DHT22;15177;50.844;4.412;2022-11-11T17:53:01;12.40;99.90
27797;DHT22;15177;50.844;4.412;2022-11-11T17:55:27;12.40;99.90
27797;DHT22;15177;50.844;4.412;2022-11-11T17:57:53;12.40;99.90
27797;DHT22;15177;50.844;4.412;2022-11-11T18:00:18;12.40;99.90
27797;DHT22;15177;50.844;4.412;2022-11-11T18:02:44;12.40;99.90
27797;DHT22;15177;50.844;4.412;2022-11-11T18:05:10;12.40;99.90
27797;DHT22;15177;50.844;4.412;2022-11-11T18:07:36;12.40;99.90
27797;DHT22;15177;50.844;4.412;2022-11-11T18:10:01;12.50;99.90
27797;DHT22;15177;50.844;4.412;2022-11-11T18:12:28;12.40;99.90
27797;DHT22;15177;50.844;4.412;2022-11-11T18:14:53;12.40;99.90
27797;DHT22;15177;50.844;4.412;2022-11-11T18:17:19;12.40;99.90
27797;DHT22;15177;50.844;4.412;2022-11-11T18:19:45;12.50;99.90
27797;DHT22;15177;50.844;4.412;2022-11-11T18:22:11;12.50;99.90
27797;DHT22;15177;50.844;4.412;2022-11-11T18:24:37;12.50;99.90
27797;DHT22;15177;50.844;4.412;2022-11-11T18:27:03;12.60;99.90
27797;DHT22;15177;50.844;4.412;2022-11-11T18:29:28;12.50;99.90
27797;DHT22;15177;50.844;4.412;2022-11-11T18:31:55;12.40;99.90
27797;DHT22;15177;50.844;4.412;2022-11-11T18:34:21;12.50;99.90
27797;DHT22;15177;50.844;4.412;2022-11-11T18:36:46;12.30;99.90
27797;DHT22;15177;50.844;4.412;2022-11-11T18:39:12;12.20;99.90
27797;DHT22;15177;50.844;4.412;2022-11-11T18:41:38;12.20;99.90
27797;DHT22;15177;50.844;4.412;2022-11-11T18:44:03;12.20;99.90
27797;DHT22;15177;50.844;4.412;2022-11-11T18:46:29;12.10;99.90
27797;DHT22;15177;50.844;4.412;2022-11-11T18:48:59;12.20;99.90
27797;DHT22;15177;50.844;4.412;2022-11-11T18:51:27;12.20;99.90